Time;durP1;ratioP1;P1;durP2;ratioP2;P2;SDS_P1;SDS_P2;PMS_P1;PMS_P2;Temp;Humidity;BMP_temperature;BMP_pressure;BME280_temperature;BME280_humidity;BME280_pressure;Samples;Min_cycle;Max_cycle;Signal;HPM_P1;HPM_P2
2023/01/22 00:01:27;;;;;;;1.75;0.50;;;;;;;1.73;100.00;101486.00;5008900;28;20038;-78
2023/01/22 00:03:53;;;;;;;1.55;0.60;;;;;;;1.74;100.00;101480.84;5007251;28;20393;-78
2023/01/22 00:06:20;;;;;;;1.35;0.65;;;;;;;1.73;100.00;101478.19;5008533;28;20048;-78
2023/01/22 00:08:47;;;;;;;2.20;0.68;;;;;;;1.75;100.00;101480.00;5006094;28;20408;-78
2023/01/22 00:11:13;;;;;;;1.27;0.60;;;;;;;1.77;100.00;101487.03;5008220;28;20504;-78
2023/01/22 00:13:39;;;;;;;1.88;0.77;;;;;;;1.82;100.00;101485.50;5006040;28;20497;-78
2023/01/22 00:16:05;;;;;;;2.08;0.57;;;;;;;1.90;100.00;101486.75;5004849;28;20042;-79
2023/01/22 00:18:31;;;;;;;2.03;0.88;;;;;;;1.93;100.00;101481.66;5005582;28;20051;-79
2023/01/22 00:20:57;;;;;;;1.50;0.82;;;;;;;1.87;100.00;101482.28;5007735;28;20049;-79
2023/01/22 00:23:23;;;;;;;2.53;1.05;;;;;;;1.83;100.00;101493.38;4991509;28;20053;-79
2023/01/22 00:25:49;;;;;;;2.28;0.90;;;;;;;1.87;100.00;101486.63;5004846;28;20408;-79
2023/01/22 00:28:15;;;;;;;1.75;0.82;;;;;;;1.83;100.00;101482.06;5008297;28;20038;-78
2023/01/22 00:30:41;;;;;;;8.38;1.35;;;;;;;1.86;100.00;101487.41;5001121;28;20045;-78
2023/01/22 00:33:06;;;;;;;1.30;0.60;;;;;;;1.80;100.00;101481.94;5006292;28;20034;-78
2023/01/22 00:35:34;;;;;;;2.03;0.65;;;;;;;1.81;100.00;101487.22;4986679;28;20513;-78
2023/01/22 00:37:59;;;;;;;1.98;0.70;;;;;;;1.82;100.00;101486.41;5006295;28;20030;-78
2023/01/22 00:40:25;;;;;;;2.38;0.90;;;;;;;1.75;100.00;101489.53;5004507;28;20061;-78
2023/01/22 00:42:51;;;;;;;1.90;0.70;;;;;;;1.78;100.00;101494.88;4980728;28;20077;-77
2023/01/22 00:45:16;;;;;;;2.45;0.60;;;;;;;1.81;100.00;101491.53;5001328;28;20038;-77
2023/01/22 00:47:42;;;;;;;1.77;0.50;;;;;;;1.82;100.00;101493.31;5000848;28;20035;-77
2023/01/22 00:50:08;;;;;;;1.65;0.80;;;;;;;1.81;100.00;101491.53;4984459;28;20040;-77
2023/01/22 00:52:33;;;;;;;2.08;0.70;;;;;;;1.79;100.00;101501.88;5002021;28;20046;-77
2023/01/22 00:54:58;;;;;;;2.55;0.82;;;;;;;1.77;100.00;101505.25;5003066;28;20034;-77
2023/01/22 00:57:24;;;;;;;1.60;0.70;;;;;;;1.83;100.00;101505.50;4982226;28;20034;-77
2023/01/22 00:59:51;;;;;;;2.40;0.95;;;;;;;1.79;100.00;101509.69;5004830;28;20053;-77
2023/01/22 01:02:17;;;;;;;1.52;0.45;;;;;;;1.76;100.00;101509.56;5002321;28;20038;-77
2023/01/22 01:04:43;;;;;;;2.90;0.98;;;;;;;1.71;100.00;101511.94;5004971;28;20026;-77
2023/01/22 01:07:08;;;;;;;1.10;0.50;;;;;;;1.74;100.00;101514.69;5004813;28;20045;-77
2023/01/22 01:09:35;;;;;;;1.73;0.70;;;;;;;1.70;100.00;101514.47;5002628;28;20400;-77
2023/01/22 01:12:00;;;;;;;1.80;0.75;;;;;;;1.71;100.00;101511.94;5001676;28;20041;-77
2023/01/22 01:14:26;;;;;;;1.90;0.82;;;;;;;1.70;100.00;101517.06;5004589;28;20119;-77
2023/01/22 01:16:52;;;;;;;2.13;0.73;;;;;;;1.71;100.00;101511.94;5002788;28;20034;-77
2023/01/22 01:19:19;;;;;;;1.70;0.70;;;;;;;1.77;100.00;101515.66;5003584;28;20033;-77
2023/01/22 01:21:48;;;;;;;2.17;0.67;;;;;;;1.84;100.00;101507.31;4986473;28;20030;-77
2023/01/22 01:24:14;;;;;;;2.33;0.93;;;;;;;1.89;100.00;101506.69;5002749;28;20484;-77
2023/01/22 01:26:41;;;;;;;1.38;0.50;;;;;;;1.85;100.00;101514.28;5001959;28;20034;-77
2023/01/22 01:29:10;;;;;;;1.70;0.80;;;;;;;1.89;100.00;101521.41;5003362;28;20121;-77
2023/01/22 01:31:36;;;;;;;0.98;0.40;;;;;;;1.89;100.00;101513.59;4990838;28;20507;-76
2023/01/22 01:34:02;;;;;;;2.35;0.60;;;;;;;1.95;100.00;101509.56;5001128;28;20551;-77
2023/01/22 01:36:28;;;;;;;1.88;0.73;;;;;;;1.97;100.00;101514.84;5001530;28;20081;-77
2023/01/22 01:38:53;;;;;;;1.33;0.50;;;;;;;1.98;100.00;101511.41;5001114;28;20511;-76
2023/01/22 01:41:22;;;;;;;2.15;0.60;;;;;;;1.89;100.00;101513.59;5003316;28;20030;-77
2023/01/22 01:44:12;;;;;;;1.05;0.45;;;;;;;1.84;100.00;101515.13;4987357;28;20485;-76
2023/01/22 01:46:43;;;;;;;1.92;0.80;;;;;;;1.91;100.00;101506.72;5000354;28;20038;-77
2023/01/22 01:49:25;;;;;;;1.73;0.65;;;;;;;1.90;100.00;101523.19;5001336;28;20049;-76
2023/01/22 01:51:54;;;;;;;2.47;0.80;;;;;;;1.92;100.00;101512.03;5000753;28;20043;-76
2023/01/22 01:54:20;;;;;;;1.00;0.50;;;;;;;1.96;100.00;101515.63;5000961;28;20034;-76
2023/01/22 01:56:50;;;;;;;1.60;0.88;;;;;;;2.04;100.00;101515.97;4997488;28;20489;-76
2023/01/22 01:59:18;;;;;;;2.28;0.70;;;;;;;2.01;100.00;101508.94;4987972;28;20038;-76
2023/01/22 02:01:50;;;;;;;2.03;0.90;;;;;;;1.93;100.00;101510.31;5001436;28;20074;-76
2023/01/22 02:04:15;;;;;;;2.08;1.08;;;;;;;1.88;100.00;101506.59;5005153;28;20133;-76
2023/01/22 02:06:41;;;;;;;2.42;0.77;;;;;;;1.89;100.00;101513.59;5002315;28;20520;-76
2023/01/22 02:09:06;;;;;;;4.32;0.95;;;;;;;1.85;100.00;101514.28;4986389;28;20034;-76
2023/01/22 02:11:33;;;;;;;1.40;0.60;;;;;;;1.84;100.00;101512.50;4986904;28;20512;-76
2023/01/22 02:14:06;;;;;;;2.72;0.70;;;;;;;1.85;100.00;101511.69;5004528;28;20030;-76
2023/01/22 02:16:31;;;;;;;1.38;0.70;;;;;;;1.89;100.00;101516.22;4997167;28;20485;-76
2023/01/22 02:18:56;;;;;;;1.83;0.68;;;;;;;1.91;100.00;101522.34;5001044;28;20092;-76
2023/01/22 02:21:42;;;;;;;2.47;1.08;;;;;;;1.88;100.00;101524.81;5002250;28;20038;-76
2023/01/22 02:24:14;;;;;;;3.13;1.00;;;;;;;1.93;100.00;101528.53;4982677;28;20387;-76
2023/01/22 02:26:41;;;;;;;2.45;0.82;;;;;;;1.93;100.00;101528.53;5001829;28;20053;-76
2023/01/22 02:29:09;;;;;;;2.28;0.95;;;;;;;1.96;100.00;101531.25;4975749;28;20114;-76
2023/01/22 02:31:36;;;;;;;1.75;0.63;;;;;;;2.03;100.00;101529.84;4996449;28;20457;-76
2023/01/22 02:34:02;;;;;;;1.38;0.60;;;;;;;1.93;100.00;101538.94;5002373;28;20022;-76
2023/01/22 02:36:31;;;;;;;1.50;0.68;;;;;;;1.92;100.00;101531.97;4991014;28;20030;-76
2023/01/22 02:38:57;;;;;;;1.45;0.60;;;;;;;1.87;100.00;101536.06;5004203;28;20034;-75
2023/01/22 02:41:22;;;;;;;1.50;0.60;;;;;;;1.93;100.00;101536.34;4999801;28;20040;-76
2023/01/22 02:43:48;;;;;;;1.63;0.82;;;;;;;1.86;100.00;101531.66;5002920;28;20041;-76
2023/01/22 02:46:13;;;;;;;2.67;1.10;;;;;;;1.85;100.00;101535.09;4983428;28;20489;-76
2023/01/22 02:48:39;;;;;;;2.20;0.80;;;;;;;1.86;100.00;101532.59;5001023;28;20484;-76
2023/01/22 02:51:04;;;;;;;3.40;1.05;;;;;;;1.90;100.00;101533.59;4986324;28;20125;-76
2023/01/22 02:53:30;;;;;;;1.60;0.68;;;;;;;1.85;100.00;101538.59;5000227;28;20034;-75
2023/01/22 02:55:56;;;;;;;2.35;0.80;;;;;;;1.88;100.00;101535.25;4995982;28;20074;-76
2023/01/22 02:58:21;;;;;;;1.33;0.70;;;;;;;1.95;100.00;101542.50;5000598;28;20081;-76
2023/01/22 03:00:46;;;;;;;2.78;0.82;;;;;;;1.93;100.00;101538.94;5002365;28;20029;-75
2023/01/22 03:03:14;;;;;;;2.35;0.70;;;;;;;1.93;100.00;101544.16;4984436;28;20069;-75
2023/01/22 03:05:51;;;;;;;1.92;0.70;;;;;;;1.98;100.00;101542.66;4985760;28;20149;-75
2023/01/22 03:08:18;;;;;;;1.73;0.80;;;;;;;1.99;100.00;101541.81;4989482;28;20037;-75
2023/01/22 03:10:44;;;;;;;2.22;0.73;;;;;;;1.94;100.00;101545.94;5002565;28;20026;-75
2023/01/22 03:21:22;;;;;;;2.92;1.10;;;;;;;1.89;100.00;101547.44;4985380;28;20049;-75
2023/01/22 03:23:51;;;;;;;1.50;0.88;;;;;;;1.91;100.00;101549.31;4984038;28;20034;-75
2023/01/22 03:26:17;;;;;;;2.28;1.02;;;;;;;1.93;100.00;101550.25;5000490;28;20088;-76
2023/01/22 03:28:44;;;;;;;1.90;0.80;;;;;;;1.93;100.00;101550.25;4988257;28;20030;-75
2023/01/22 03:31:11;;;;;;;2.20;1.00;;;;;;;1.94;100.00;101548.56;4999451;28;20039;-75
2023/01/22 03:33:36;;;;;;;2.50;1.42;;;;;;;1.94;100.00;101545.94;4980048;28;20367;-75
2023/01/22 03:36:09;;;;;;;1.48;0.57;;;;;;;1.91;100.00;101548.38;5000892;28;20029;-75
2023/01/22 03:38:36;;;;;;;2.00;0.90;;;;;;;1.93;100.00;101549.34;4990056;28;20034;-75
2023/01/22 03:41:10;;;;;;;2.00;1.00;;;;;;;1.96;100.00;101549.47;4999251;28;20034;-75
2023/01/22 03:43:35;;;;;;;1.63;0.95;;;;;;;1.94;100.00;101548.56;4994010;28;20059;-75
2023/01/22 03:46:09;;;;;;;1.80;0.60;;;;;;;2.01;100.00;101542.78;4999914;28;20040;-75
2023/01/22 03:48:36;;;;;;;2.10;0.82;;;;;;;2.07;100.00;101550.88;4979563;28;20040;-75
2023/01/22 03:51:10;;;;;;;2.25;0.82;;;;;;;2.09;100.00;101549.22;4983172;28;20452;-75
2023/01/22 03:53:36;;;;;;;2.55;1.58;;;;;;;2.11;100.00;101546.69;4999459;28;20145;-75
2023/01/22 03:56:07;;;;;;;3.28;0.93;;;;;;;2.12;100.00;101556.28;4999222;28;20121;-75
2023/01/22 03:58:35;;;;;;;2.70;1.10;;;;;;;2.04;100.00;101545.50;4983474;28;20030;-75
2023/01/22 04:01:05;;;;;;;3.63;1.00;;;;;;;2.03;100.00;101564.56;5001290;28;20451;-75
2023/01/22 04:03:31;;;;;;;4.18;1.35;;;;;;;1.97;100.00;101556.50;4985320;28;20030;-75
2023/01/22 04:05:59;;;;;;;4.55;1.38;;;;;;;2.01;100.00;101563.59;4997808;28;20030;-75
2023/01/22 04:08:27;;;;;;;2.10;1.23;;;;;;;2.03;100.00;101568.91;5001833;28;20045;-75
2023/01/22 04:10:55;;;;;;;2.97;1.50;;;;;;;2.01;100.00;101573.13;4985919;28;20030;-75
2023/01/22 04:13:20;;;;;;;2.65;1.27;;;;;;;1.97;100.00;101583.41;5000289;28;20128;-75
2023/01/22 04:15:48;;;;;;;3.17;0.98;;;;;;;1.96;100.00;101575.53;4985183;28;20072;-75
2023/01/22 04:18:33;;;;;;;4.15;1.48;;;;;;;1.98;100.00;101579.09;4985997;28;20034;-75
2023/01/22 04:21:06;;;;;;;;;;;;;;;1.99;100.00;101586.06;4995764;28;20038;-75
2023/01/22 04:23:40;;;;;;;3.30;1.40;;;;;;;2.00;100.00;101587.88;4985397;28;20371;-75
2023/01/22 04:26:06;;;;;;;3.63;1.42;;;;;;;1.98;100.00;101594.72;4984379;28;20066;-75
2023/01/22 04:28:31;;;;;;;3.65;1.50;;;;;;;1.86;100.00;101599.34;4989507;28;20515;-75
2023/01/22 04:30:58;;;;;;;4.00;1.25;;;;;;;1.86;100.00;101600.25;5001863;28;20030;-75
2023/01/22 04:33:40;;;;;;;3.42;1.75;;;;;;;1.85;100.00;101600.19;4985042;28;20045;-75
2023/01/22 04:36:13;;;;;;;3.83;1.30;;;;;;;1.80;100.00;101596.47;4970810;28;20042;-75
2023/01/22 04:38:38;;;;;;;4.47;1.90;;;;;;;1.77;100.00;101598.94;5009997;28;20188;-75
2023/01/22 04:41:04;;;;;;;3.95;1.60;;;;;;;1.82;100.00;101602.66;5003801;28;20052;-74
2023/01/22 04:43:29;;;;;;;4.57;1.83;;;;;;;1.80;100.00;101597.34;4990003;28;20113;-75
2023/01/22 04:45:55;;;;;;;3.10;1.40;;;;;;;1.83;100.00;101599.22;5002271;28;20427;-74
2023/01/22 04:48:26;;;;;;;4.20;1.33;;;;;;;1.83;100.00;101600.09;4989254;28;20525;-74
2023/01/22 04:50:52;;;;;;;3.15;1.15;;;;;;;1.76;100.00;101598.06;5005153;28;20069;-75
2023/01/22 04:53:17;;;;;;;4.13;1.95;;;;;;;1.85;100.00;101600.19;5005332;28;20062;-74
2023/01/22 04:55:44;;;;;;;4.95;1.70;;;;;;;1.84;100.00;101606.22;5000636;28;20042;-75
2023/01/22 04:58:11;;;;;;;3.83;1.35;;;;;;;1.78;100.00;101605.91;4990266;28;20532;-74
2023/01/22 05:00:38;;;;;;;3.90;1.73;;;;;;;1.83;100.00;101601.81;4984904;28;20062;-75
2023/01/22 05:03:04;;;;;;;4.78;1.60;;;;;;;1.81;100.00;101603.44;5004556;28;20112;-75
2023/01/22 05:05:32;;;;;;;4.72;1.67;;;;;;;1.84;100.00;101603.63;4986879;28;20035;-75
2023/01/22 05:07:57;;;;;;;5.95;2.08;;;;;;;1.92;100.00;101607.47;5004230;28;20100;-75
2023/01/22 05:10:23;;;;;;;4.82;1.95;;;;;;;1.96;100.00;101607.69;5004956;28;20030;-75
2023/01/22 05:12:48;;;;;;;3.92;1.60;;;;;;;1.96;100.00;101611.97;5001656;28;20030;-75
2023/01/22 05:15:14;;;;;;;5.15;1.70;;;;;;;1.96;100.00;101622.38;5005928;28;20033;-75
2023/01/22 05:17:39;;;;;;;4.72;2.15;;;;;;;1.97;100.00;101614.66;5003094;28;20049;-75
2023/01/22 05:20:05;;;;;;;3.30;1.40;;;;;;;1.93;100.00;101617.94;4999632;28;20065;-75
2023/01/22 05:22:31;;;;;;;5.07;2.30;;;;;;;1.96;100.00;101618.09;4993242;28;20508;-75
2023/01/22 05:24:57;;;;;;;5.93;1.75;;;;;;;1.85;100.00;101615.81;4993033;28;20030;-75
2023/01/22 05:27:22;;;;;;;4.13;2.00;;;;;;;1.86;100.00;101620.16;4997074;28;20664;-75
2023/01/22 05:29:57;;;;;;;4.22;1.75;;;;;;;1.87;100.00;101625.47;4978262;28;20030;-75
2023/01/22 05:32:37;;;;;;;4.65;2.20;;;;;;;1.89;100.00;101630.75;4998309;28;20109;-74
2023/01/22 05:35:04;;;;;;;4.72;1.70;;;;;;;1.87;100.00;101627.19;4998087;28;20137;-74
2023/01/22 05:37:31;;;;;;;5.25;2.45;;;;;;;1.87;100.00;101630.66;5002815;28;20424;-74
2023/01/22 05:39:56;;;;;;;5.68;2.03;;;;;;;1.85;100.00;101628.81;5003341;28;20033;-75
2023/01/22 05:42:22;;;;;;;4.97;2.28;;;;;;;1.82;100.00;101628.69;5004430;28;20037;-75
2023/01/22 05:44:48;;;;;;;5.80;2.47;;;;;;;1.75;100.00;101628.38;5000832;28;20448;-75
2023/01/22 05:47:17;;;;;;;5.00;2.00;;;;;;;1.80;100.00;101636.41;5002244;28;20068;-75
2023/01/22 05:50:21;;;;;;;4.95;1.80;;;;;;;1.86;100.00;101635.78;5001002;28;20049;-74
2023/01/22 05:52:54;;;;;;;5.72;2.63;;;;;;;1.87;100.00;101643.69;4989187;28;20031;-74
2023/01/22 05:55:19;;;;;;;5.97;2.00;;;;;;;1.81;100.00;101632.09;4977106;28;20460;-75
2023/01/22 05:57:45;;;;;;;4.65;2.20;;;;;;;1.82;100.00;101639.09;4998255;28;20034;-75
2023/01/22 06:00:13;;;;;;;4.60;1.95;;;;;;;1.85;100.00;101641.84;4997496;28;20076;-74
2023/01/22 06:02:59;;;;;;;4.93;2.35;;;;;;;1.79;100.00;101639.84;5002266;28;20046;-77
2023/01/22 06:05:27;;;;;;;7.63;2.95;;;;;;;1.83;100.00;101646.06;4993917;28;20033;-77
2023/01/22 06:07:59;;;;;;;;;;;;;;;1.78;100.00;101647.56;4999841;28;20049;-77
2023/01/22 06:10:29;;;;;;;7.68;3.38;;;;;;;1.78;100.00;101639.75;5009197;28;19918;-77
2023/01/22 06:12:54;;;;;;;9.40;2.75;;;;;;;1.71;100.00;101642.06;4993429;28;20516;-77
2023/01/22 06:15:20;;;;;;;5.18;1.85;;;;;;;1.81;100.00;101646.00;4995393;28;20397;-77
2023/01/22 06:17:53;;;;;;;4.25;2.03;;;;;;;1.85;100.00;101647.94;4991903;28;20045;-77
2023/01/22 06:20:18;;;;;;;6.18;2.15;;;;;;;1.84;100.00;101643.56;4992642;28;20721;-77
2023/01/22 06:22:43;;;;;;;6.15;2.67;;;;;;;1.85;100.00;101652.25;4992683;28;20033;-77
2023/01/22 06:25:09;;;;;;;4.35;1.52;;;;;;;1.83;100.00;101659.97;4992305;28;20029;-77
2023/01/22 06:27:58;;;;;;;5.28;2.03;;;;;;;1.79;100.00;101657.19;4996095;28;20408;-77
2023/01/22 06:30:23;;;;;;;5.55;2.33;;;;;;;1.83;100.00;101661.69;4991855;28;20030;-77
2023/01/22 06:32:53;;;;;;;4.45;1.50;;;;;;;1.83;100.00;101666.91;4998789;28;20145;-77
2023/01/22 06:35:19;;;;;;;5.88;2.90;;;;;;;1.85;100.00;101670.47;4998330;28;20035;-77
2023/01/22 06:37:44;;;;;;;4.93;2.05;;;;;;;1.90;100.00;101669.88;4997069;28;20041;-77
2023/01/22 06:40:10;;;;;;;5.68;2.40;;;;;;;1.94;100.00;101681.34;4991922;28;20087;-77
2023/01/22 06:42:43;;;;;;;5.88;2.80;;;;;;;1.94;100.00;101682.22;4996034;28;20027;-77
2023/01/22 06:45:09;;;;;;;4.88;2.75;;;;;;;1.94;100.00;101695.22;5005220;28;20054;-77
2023/01/22 06:47:36;;;;;;;5.13;2.47;;;;;;;1.96;100.00;101692.69;5001726;28;20405;-77
2023/01/22 06:50:04;;;;;;;6.57;2.85;;;;;;;1.94;100.00;101702.16;4996484;28;20034;-77
2023/01/22 06:52:30;;;;;;;5.68;2.13;;;;;;;1.92;100.00;101699.47;4988630;28;20034;-77
2023/01/22 06:54:56;;;;;;;6.30;2.30;;;;;;;1.98;100.00;101704.06;4988528;28;20053;-77
2023/01/22 06:57:24;;;;;;;7.38;2.72;;;;;;;2.04;100.00;101708.66;5002446;28;20065;-78
2023/01/22 06:59:50;;;;;;;6.78;2.75;;;;;;;2.10;100.00;101704.66;5002557;28;20123;-78
2023/01/22 07:02:17;;;;;;;4.50;1.92;;;;;;;2.17;100.00;101711.94;5003495;28;20043;-77
2023/01/22 07:04:42;;;;;;;6.55;2.75;;;;;;;2.18;100.00;101711.13;5003662;28;20095;-78
2023/01/22 07:07:08;;;;;;;6.32;2.78;;;;;;;2.13;100.00;101716.94;5004964;28;20141;-78
2023/01/22 07:09:36;;;;;;;6.13;2.58;;;;;;;2.14;100.00;101716.97;5004059;28;20045;-77
2023/01/22 07:12:02;;;;;;;6.70;2.50;;;;;;;2.14;100.00;101713.50;5002404;28;20101;-77
2023/01/22 07:14:29;;;;;;;6.47;3.17;;;;;;;2.13;100.00;101714.31;5003198;28;20036;-78
2023/01/22 07:16:55;;;;;;;9.32;2.42;;;;;;;2.07;100.00;101724.44;4998972;28;20038;-77
2023/01/22 07:19:20;;;;;;;6.38;2.65;;;;;;;2.06;100.00;101726.16;4996413;28;20046;-77
2023/01/22 07:21:45;;;;;;;8.75;3.33;;;;;;;2.06;100.00;101727.88;5003898;28;20038;-77
2023/01/22 07:24:11;;;;;;;6.43;3.22;;;;;;;2.13;100.00;101730.84;5001747;28;20038;-77
2023/01/22 07:26:37;;;;;;;8.13;3.15;;;;;;;2.22;100.00;101729.50;5000711;28;20077;-77
2023/01/22 07:29:03;;;;;;;6.43;2.83;;;;;;;2.21;100.00;101728.59;5000850;28;20461;-77
2023/01/22 07:31:29;;;;;;;6.50;2.47;;;;;;;2.29;100.00;101735.06;4995915;28;20048;-76
2023/01/22 07:33:54;;;;;;;6.18;2.67;;;;;;;2.29;100.00;101732.44;5006134;28;20112;-77
2023/01/22 07:36:19;;;;;;;7.38;2.50;;;;;;;2.30;100.00;101733.34;4997796;28;20160;-77
2023/01/22 07:38:45;;;;;;;7.55;3.55;;;;;;;2.28;100.00;101734.97;5000669;28;20049;-78
2023/01/22 07:41:10;;;;;;;7.80;3.15;;;;;;;2.27;100.00;101738.41;5000609;28;20053;-77
2023/01/22 07:43:35;;;;;;;6.93;2.33;;;;;;;2.18;100.00;101744.09;4999207;28;20046;-77
2023/01/22 07:46:02;;;;;;;5.45;2.25;;;;;;;2.19;100.00;101745.88;5001556;28;20030;-77
2023/01/22 07:48:27;;;;;;;6.05;2.20;;;;;;;2.23;100.00;101745.19;4995886;28;20038;-77
2023/01/22 07:50:53;;;;;;;6.55;2.55;;;;;;;2.26;100.00;101749.66;5003370;28;20448;-78
2023/01/22 07:53:18;;;;;;;4.97;2.50;;;;;;;2.34;100.00;101756.13;5000221;28;20075;-77
2023/01/22 07:55:43;;;;;;;6.95;3.05;;;;;;;2.33;100.00;101755.25;4988793;28;20505;-77
2023/01/22 07:58:10;;;;;;;7.00;2.67;;;;;;;2.32;100.00;101758.63;4993067;28;20050;-77
2023/01/22 08:00:35;;;;;;;6.70;2.17;;;;;;;2.34;100.00;101756.13;4991979;28;21434;-77
2023/01/22 08:03:05;;;;;;;6.22;2.67;;;;;;;2.31;100.00;101763.81;5003172;28;20030;-77
2023/01/22 08:05:30;;;;;;;7.13;3.28;;;;;;;2.30;100.00;101764.59;4987627;28;20493;-77
2023/01/22 08:07:57;;;;;;;6.75;3.22;;;;;;;2.29;100.00;101762.81;5002923;28;20114;-77
2023/01/22 08:10:22;;;;;;;5.68;2.15;;;;;;;2.35;100.00;101770.91;4995863;28;20116;-77
2023/01/22 08:12:47;;;;;;;5.55;3.25;;;;;;;2.33;100.00;101775.16;5009710;28;20134;-77
2023/01/22 08:15:14;;;;;;;2.28;1.40;;;;;;;2.33;100.00;101772.56;4999011;28;20038;-77
2023/01/22 08:17:39;;;;;;;5.25;2.25;;;;;;;2.37;100.00;101782.31;5004152;28;20038;-77
2023/01/22 08:20:05;;;;;;;6.97;2.72;;;;;;;2.41;100.00;101776.41;5008065;28;20042;-78
2023/01/22 08:22:31;;;;;;;4.55;2.13;;;;;;;2.41;100.00;101773.81;5005410;28;20129;-77
2023/01/22 08:24:56;;;;;;;4.70;1.95;;;;;;;2.42;100.00;101786.91;5005846;28;20126;-77
2023/01/22 08:27:22;;;;;;;4.10;2.22;;;;;;;2.39;100.00;101791.09;5005554;28;20037;-77
2023/01/22 08:29:50;;;;;;;3.72;1.48;;;;;;;2.44;100.00;101794.81;5007275;28;20030;-77
2023/01/22 08:32:17;;;;;;;7.75;2.17;;;;;;;2.46;100.00;101792.25;5004455;28;20042;-77
2023/01/22 08:34:42;;;;;;;6.55;2.13;;;;;;;2.41;100.00;101792.97;4987669;28;20034;-77
2023/01/22 08:37:08;;;;;;;4.85;2.28;;;;;;;2.46;100.00;101802.69;5007993;28;20670;-77
2023/01/22 08:39:33;;;;;;;4.22;2.42;;;;;;;2.42;100.00;101801.66;5005846;28;20438;-78
2023/01/22 08:41:58;;;;;;;3.60;2.38;;;;;;;2.40;100.00;101813.72;5006227;28;20053;-77
2023/01/22 08:44:24;;;;;;;3.70;2.03;;;;;;;2.47;100.00;101815.81;5007375;28;20049;-77
2023/01/22 08:46:50;;;;;;;8.38;2.55;;;;;;;2.51;100.00;101817.72;5006979;28;20045;-77
2023/01/22 08:49:17;;;;;;;3.03;1.77;;;;;;;2.56;100.00;101816.22;5004561;28;20046;-77
2023/01/22 08:51:42;;;;;;;4.05;2.35;;;;;;;2.59;100.00;101824.22;5006998;28;20041;-77
2023/01/22 08:54:07;;;;;;;2.85;1.85;;;;;;;2.63;100.00;101822.63;5005279;28;20034;-78
2023/01/22 08:56:33;;;;;;;4.68;2.38;;;;;;;2.66;100.00;101821.88;5005715;28;20038;-77
2023/01/22 08:59:00;;;;;;;5.88;2.65;;;;;;;2.67;100.00;101823.66;5007085;28;20385;-77
2023/01/22 09:01:25;;;;;;;4.32;1.95;;;;;;;2.67;100.00;101824.53;5004275;28;20057;-77
2023/01/22 09:03:51;;;;;;;5.00;2.30;;;;;;;2.76;100.00;101818.88;5001012;28;20038;-77
2023/01/22 09:06:16;;;;;;;4.43;1.75;;;;;;;2.79;100.00;101832.06;5006673;28;20037;-77
2023/01/22 09:08:42;;;;;;;4.20;2.38;;;;;;;2.80;100.00;101836.44;5007514;28;20038;-77
2023/01/22 09:11:07;;;;;;;6.57;2.20;;;;;;;2.80;100.00;101831.22;5003716;28;20038;-78
2023/01/22 09:13:32;;;;;;;3.88;1.88;;;;;;;2.86;100.00;101834.13;5005496;28;20080;-77
2023/01/22 09:15:58;;;;;;;4.40;2.67;;;;;;;2.88;100.00;101835.06;5002249;28;20034;-77
2023/01/22 09:18:24;;;;;;;7.60;2.88;;;;;;;3.00;100.00;101834.75;5001992;28;20038;-78
2023/01/22 09:20:50;;;;;;;5.22;2.20;;;;;;;2.94;100.00;101839.69;5005371;28;20045;-75
2023/01/22 09:23:15;;;;;;;4.93;2.25;;;;;;;2.98;100.00;101842.50;5003478;28;20026;-75
2023/01/22 09:25:40;;;;;;;10.13;1.58;;;;;;;3.02;100.00;101838.31;5003527;28;20053;-75
2023/01/22 09:28:08;;;;;;;7.93;3.45;;;;;;;3.13;100.00;101836.19;5004501;28;20113;-75
2023/01/22 09:30:34;;;;;;;5.10;2.05;;;;;;;3.22;100.00;101829.69;5002838;28;20515;-75
2023/01/22 09:33:00;;;;;;;6.93;2.15;;;;;;;3.18;100.00;101839.91;5004137;28;20077;-75
2023/01/22 09:35:26;;;;;;;4.32;1.88;;;;;;;3.17;100.00;101835.50;5004666;28;20073;-76
2023/01/22 09:37:52;;;;;;;4.68;2.38;;;;;;;3.13;100.00;101841.41;5006831;28;20034;-76
2023/01/22 09:40:24;;;;;;;7.13;3.00;;;;;;;3.20;100.00;101836.53;5000865;28;20026;-75
2023/01/22 09:42:51;;;;;;;5.35;2.63;;;;;;;3.26;100.00;101844.63;5002197;28;20049;-75
2023/01/22 09:45:20;;;;;;;7.63;2.33;;;;;;;3.26;100.00;101847.25;5000175;28;20038;-76
2023/01/22 09:47:50;;;;;;;4.20;2.22;;;;;;;3.30;100.00;101850.88;5000725;28;20053;-75
2023/01/22 09:50:22;;;;;;;5.03;2.72;;;;;;;3.22;100.00;101847.03;4985348;28;20070;-75
2023/01/22 09:52:50;;;;;;;4.22;1.77;;;;;;;3.27;100.00;101850.72;4982003;28;20039;-75
2023/01/22 09:55:19;;;;;;;12.57;2.55;;;;;;;3.28;100.00;101844.72;4988049;28;20077;-75
2023/01/22 09:57:47;;;;;;;3.53;1.98;;;;;;;3.23;100.00;101849.72;5000348;28;20456;-75
2023/01/22 10:00:19;;;;;;;5.05;2.33;;;;;;;3.31;100.00;101859.63;5004961;28;20057;-76
2023/01/22 10:02:58;;;;;;;;;;;;;;;3.28;100.00;101847.31;4999851;28;20039;-75
2023/01/22 10:05:35;;;;;;;5.97;2.35;;;;;;;3.31;100.00;101839.63;4996148;28;20016;-75
2023/01/22 10:08:25;;;;;;;4.93;2.40;;;;;;;3.27;100.00;101840.28;4998391;28;20030;-76
2023/01/22 10:10:51;;;;;;;6.03;2.83;;;;;;;3.11;100.00;101838.72;4998181;28;20045;-75
2023/01/22 10:13:27;;;;;;;4.97;2.50;;;;;;;3.14;100.00;101844.06;5002853;28;20061;-76
2023/01/22 10:15:54;;;;;;;4.22;1.92;;;;;;;3.11;100.00;101843.06;4997062;28;20038;-75
2023/01/22 10:18:27;;;;;;;5.05;2.20;;;;;;;3.18;100.00;101843.41;5003157;28;20108;-75
2023/01/22 10:20:54;;;;;;;3.95;2.13;;;;;;;3.31;100.00;101842.22;4994548;28;20034;-75
2023/01/22 10:23:25;;;;;;;4.80;2.88;;;;;;;3.42;100.00;101843.59;5004193;28;20038;-75
2023/01/22 10:26:05;;;;;;;5.80;3.00;;;;;;;3.42;100.00;101843.59;4999201;28;20065;-76
2023/01/22 10:28:31;;;;;;;4.10;1.98;;;;;;;3.41;100.00;101839.22;4996718;28;20596;-75
2023/01/22 10:30:57;;;;;;;9.93;2.53;;;;;;;3.42;100.00;101851.41;5003664;28;20068;-75
2023/01/22 10:33:24;;;;;;;4.97;2.67;;;;;;;3.47;100.00;101849.91;5002255;28;20018;-75
2023/01/22 10:35:55;;;;;;;7.10;2.65;;;;;;;3.45;100.00;101854.16;4991902;28;20037;-76
2023/01/22 10:38:30;;;;;;;4.90;2.80;;;;;;;3.48;100.00;101851.72;4993243;28;20042;-75
2023/01/22 10:41:01;;;;;;;5.40;3.10;;;;;;;3.60;100.00;101866.13;5002372;28;20061;-75
2023/01/22 10:43:35;;;;;;;8.52;3.03;;;;;;;3.61;100.00;101855.72;4994629;28;20505;-76
2023/01/22 10:46:19;;;;;;;5.32;2.30;;;;;;;3.66;100.00;101855.91;4995862;28;20042;-76
2023/01/22 10:48:56;;;;;;;10.68;2.53;;;;;;;3.60;100.00;101867.00;4999063;28;20415;-75
2023/01/22 10:51:26;;;;;;;5.70;2.83;;;;;;;3.64;100.00;101860.19;5001411;28;20096;-76
2023/01/22 10:53:56;;;;;;;9.52;3.55;;;;;;;3.65;100.00;101857.66;4998991;28;20065;-75
2023/01/22 10:56:29;;;;;;;6.45;2.95;;;;;;;3.64;100.00;101858.50;5002334;28;20037;-75
2023/01/22 10:58:56;;;;;;;6.93;2.53;;;;;;;3.66;100.00;101861.16;4983310;28;20123;-76
2023/01/22 11:01:36;;;;;;;5.00;2.03;;;;;;;3.58;100.00;101883.41;5003572;28;20121;-76
2023/01/22 11:04:22;;;;;;;3.63;2.03;;;;;;;3.45;100.00;101866.31;4987963;28;20038;-75
2023/01/22 11:06:52;;;;;;;4.72;2.20;;;;;;;3.36;100.00;101872.03;4999185;28;20088;-76
2023/01/22 11:09:34;;;;;;;4.63;2.17;;;;;;;3.37;100.00;101867.69;5001124;28;20484;-75
2023/01/22 11:12:08;;;;;;;4.68;2.17;;;;;;;3.36;100.00;101861.59;4981042;28;20512;-76
2023/01/22 11:14:36;;;;;;;9.30;3.10;;;;;;;3.28;100.00;101866.47;4998516;28;20058;-76
2023/01/22 11:17:35;;;;;;;5.68;2.97;;;;;;;3.24;100.00;101869.75;5004318;28;20053;-76
2023/01/22 11:20:10;;;;;;;9.40;1.92;;;;;;;3.09;100.00;101874.28;4995644;28;20500;-76
2023/01/22 11:22:42;;;;;;;6.97;2.75;;;;;;;3.11;100.00;101875.25;5002547;28;20035;-75
2023/01/22 11:25:10;;;;;;;6.95;3.30;;;;;;;3.07;100.00;101879.44;5002841;28;20042;-75
2023/01/22 11:28:03;;;;;;;7.10;2.92;;;;;;;3.13;100.00;101883.16;5000555;28;20042;-75
2023/01/22 11:30:51;;;;;;;6.68;2.65;;;;;;;3.13;100.00;101875.31;5002474;28;20054;-75
2023/01/22 11:33:19;;;;;;;5.00;2.13;;;;;;;3.07;100.00;101863.78;4982136;28;20552;-74
2023/01/22 11:35:44;;;;;;;11.30;3.63;;;;;;;3.14;100.00;101864.94;5002776;28;20690;-74
2023/01/22 11:38:19;;;;;;;8.95;2.88;;;;;;;3.10;100.00;101862.16;5005335;28;20026;-75
2023/01/22 11:41:18;;;;;;;6.03;2.72;;;;;;;3.11;100.00;101863.91;5001035;28;20034;-75